Time;durP1;ratioP1;P1;durP2;ratioP2;P2;SDS_P1;SDS_P2;PMS_P1;PMS_P2;Temp;Humidity;BMP_temperature;BMP_pressure;BME280_temperature;BME280_humidity;BME280_pressure;Samples;Min_cycle;Max_cycle;Signal;HPM_P1;HPM_P2
2022/11/08 00:03:24;;;;;;;17.55;7.97;;;;;;;10.10;100.00;100508.94;3493443;83;26016;-89
2022/11/08 00:13:59;;;;;;;19.67;8.60;;;;;;;9.97;100.00;100511.67;3494765;83;26202;-89
2022/11/08 00:19:00;;;;;;;16.05;9.08;;;;;;;9.93;100.00;100510.22;3487405;83;99045;-89
2022/11/08 00:24:00;;;;;;;19.13;9.27;;;;;;;9.85;100.00;100511.29;3497651;83;33233;-89
2022/11/08 00:29:01;;;;;;;20.60;9.90;;;;;;;9.79;100.00;100513.34;3473468;84;99520;-89
2022/11/08 00:34:02;;;;;;;20.97;10.20;;;;;;;9.73;100.00;100520.31;3488638;84;33107;-90
2022/11/08 00:39:03;;;;;;;19.85;9.40;;;;;;;9.65;100.00;100513.91;3477469;84;99145;-88
2022/11/08 00:44:04;;;;;;;18.97;9.73;;;;;;;9.59;100.00;100505.77;3480212;84;33259;-89
2022/11/08 00:49:05;;;;;;;16.30;8.60;;;;;;;9.50;100.00;100510.74;3495737;84;98844;-90
2022/11/08 00:54:07;;;;;;;18.87;9.83;;;;;;;9.44;100.00;100523.77;3478520;84;33212;-90
2022/11/08 00:59:13;;;;;;;19.03;9.83;;;;;;;9.37;100.00;100514.05;3474845;84;99141;-90
2022/11/08 01:04:17;;;;;;;20.93;9.17;;;;;;;9.29;100.00;100517.24;3477872;84;26565;-90
2022/11/08 01:09:17;;;;;;;15.83;8.13;;;;;;;9.22;100.00;100512.98;3479903;84;99005;-90
2022/11/08 01:14:18;;;;;;;14.97;8.60;;;;;;;9.15;100.00;100507.38;3477475;84;33887;-90
2022/11/08 01:19:19;;;;;;;19.47;8.47;;;;;;;9.11;100.00;100508.48;3476377;84;98916;-90
2022/11/08 01:24:20;;;;;;;16.67;8.67;;;;;;;9.04;100.00;100501.46;3502332;82;33250;-90
2022/11/08 01:29:20;;;;;;;16.80;9.23;;;;;;;8.98;100.00;100506.47;3512801;82;99095;-90
2022/11/08 01:34:21;;;;;;;17.40;8.27;;;;;;;8.94;100.00;100511.69;3511043;82;33246;-90
2022/11/08 01:39:22;;;;;;;15.87;7.97;;;;;;;8.89;100.00;100512.77;3513713;82;98969;-90
2022/11/08 01:44:23;;;;;;;16.02;8.33;;;;;;;8.83;100.00;100500.49;3517922;82;33253;-90
2022/11/08 01:49:35;;;;;;;18.90;9.73;;;;;;;8.81;100.00;100497.33;3513441;82;98935;-90
2022/11/08 01:55:00;;;;;;;17.70;8.00;;;;;;;8.78;100.00;100504.13;3516272;82;30398;-90
2022/11/08 02:00:05;;;;;;;20.02;10.40;;;;;;;8.76;100.00;100500.94;3506345;82;98994;-89
2022/11/08 02:05:23;;;;;;;17.67;8.77;;;;;;;8.73;100.00;100501.67;3518661;82;25878;-90
2022/11/08 02:10:15;;;;;;;16.10;8.03;;;;;;;8.69;100.00;100504.92;3506508;82;98786;-90
2022/11/08 02:15:17;;;;;;;20.12;9.05;;;;;;;8.66;100.00;100497.41;3517244;82;33482;-90
2022/11/08 02:20:18;;;;;;;21.35;9.10;;;;;;;8.65;100.00;100498.56;3514590;82;98718;-89
2022/11/08 02:25:19;;;;;;;18.47;9.10;;;;;;;8.63;100.00;100505.80;3497301;82;31934;-90
2022/11/08 02:30:20;;;;;;;19.17;9.30;;;;;;;8.63;100.00;100505.00;3495188;83;98849;-90
2022/11/08 02:35:21;;;;;;;17.93;10.07;;;;;;;8.63;100.00;100499.52;3495955;83;31693;-90
2022/11/08 02:40:22;;;;;;;16.40;8.50;;;;;;;8.65;100.00;100498.00;3488791;83;99029;-89
2022/11/08 02:45:23;;;;;;;19.93;7.63;;;;;;;8.67;100.00;100493.53;3491838;83;31734;-89
2022/11/08 02:50:24;;;;;;;22.10;9.53;;;;;;;8.69;100.00;100493.95;3470406;83;99104;-89
2022/11/08 02:55:24;;;;;;;16.70;8.30;;;;;;;8.70;100.00;100497.70;3491193;83;31604;-91
2022/11/08 03:00:25;;;;;;;15.50;7.87;;;;;;;8.70;100.00;100491.41;3490533;83;98665;-91
2022/11/08 03:05:27;;;;;;;17.12;8.68;;;;;;;8.69;100.00;100497.49;3494952;83;31644;-91
2022/11/08 03:10:30;;;;;;;15.20;7.97;;;;;;;8.67;100.00;100501.16;3488333;83;98832;-91
2022/11/08 03:15:32;;;;;;;16.85;8.35;;;;;;;8.63;100.00;100502.25;3498264;83;31593;-90
2022/11/08 03:20:33;;;;;;;19.30;7.80;;;;;;;8.58;100.00;100510.20;3490274;83;98914;-90
2022/11/08 03:25:34;;;;;;;16.10;7.33;;;;;;;8.52;100.00;100502.63;3500215;83;26418;-90
2022/11/08 03:30:35;;;;;;;14.53;6.70;;;;;;;8.48;100.00;100507.23;3490469;83;98759;-91
2022/11/08 03:35:36;;;;;;;13.60;7.17;;;;;;;8.40;100.00;100497.28;3495865;83;35460;-91
2022/11/08 03:40:37;;;;;;;15.73;7.93;;;;;;;8.33;100.00;100501.23;3493788;83;98856;-91
2022/11/08 03:45:38;;;;;;;15.57;7.47;;;;;;;8.28;100.00;100505.66;3494326;83;35370;-91
2022/11/08 03:50:38;;;;;;;16.43;7.67;;;;;;;8.23;100.00;100507.30;3488751;83;98731;-89
2022/11/08 03:55:40;;;;;;;14.27;6.97;;;;;;;8.17;100.00;100503.20;3496820;83;35985;-90
2022/11/08 04:00:41;;;;;;;17.92;8.25;;;;;;;8.11;100.00;100499.96;3489933;83;98801;-90
2022/11/08 04:05:41;;;;;;;14.50;6.83;;;;;;;8.04;100.00;100500.38;3493910;83;34886;-91
2022/11/08 04:10:42;;;;;;;15.40;8.05;;;;;;;7.95;100.00;100487.44;3489871;83;98756;-91
2022/11/08 04:15:45;;;;;;;20.32;9.90;;;;;;;7.98;100.00;100497.70;3496538;83;35771;-90
2022/11/08 04:26:10;;;;;;;21.70;9.63;;;;;;;7.89;100.00;100501.20;3490127;84;34163;-90
2022/11/08 04:31:14;;;;;;;18.20;9.93;;;;;;;7.85;100.00;100492.13;3480026;84;98655;-91
2022/11/08 04:36:16;;;;;;;24.52;11.53;;;;;;;7.83;100.00;100498.52;3472586;83;98979;-91
2022/11/08 04:41:21;;;;;;;19.05;9.70;;;;;;;7.79;100.00;100496.30;3484473;84;34804;-91
2022/11/08 04:46:26;;;;;;;19.97;10.67;;;;;;;7.76;100.00;100488.78;3472278;84;98760;-91
2022/11/08 04:51:32;;;;;;;18.70;8.30;;;;;;;7.75;100.00;100489.94;3480566;84;34838;-91
2022/11/08 04:56:33;;;;;;;16.27;7.62;;;;;;;7.73;100.00;100494.95;3474254;84;99079;-91
2022/11/08 05:01:34;;;;;;;17.23;8.00;;;;;;;7.72;100.00;100495.55;3480597;84;26188;-90
2022/11/08 05:06:34;;;;;;;18.87;7.90;;;;;;;7.69;100.00;100500.36;3474049;84;99034;-91
2022/11/08 05:11:35;;;;;;;12.87;7.17;;;;;;;7.67;100.00;100501.86;3494583;84;32499;-91
2022/11/08 05:16:36;;;;;;;13.35;7.20;;;;;;;7.63;100.00;100507.27;3468223;84;99010;-91
2022/11/08 05:26:56;;;;;;;17.75;7.92;;;;;;;7.58;100.00;100493.06;3497752;82;99133;-91
2022/11/08 05:31:57;;;;;;;18.00;8.17;;;;;;;7.56;100.00;100506.29;3513363;82;26390;-91
2022/11/08 05:36:58;;;;;;;13.20;6.90;;;;;;;7.53;100.00;100495.47;3504807;82;98985;-92
2022/11/08 05:41:58;;;;;;;15.63;8.13;;;;;;;7.50;100.00;100496.20;3508733;82;32435;-90
2022/11/08 05:46:59;;;;;;;16.67;8.70;;;;;;;7.48;100.00;100492.22;3506451;81;98894;-91
2022/11/08 05:52:00;;;;;;;18.10;7.53;;;;;;;7.46;100.00;100499.42;3515119;82;32475;-91
2022/11/08 05:57:01;;;;;;;16.48;7.70;;;;;;;7.44;100.00;100507.77;3509170;82;99051;-91
2022/11/08 06:02:01;;;;;;;17.92;8.75;;;;;;;7.40;100.00;100499.47;3506662;82;32478;-91
2022/11/08 06:07:02;;;;;;;14.23;7.40;;;;;;;7.39;100.00;100507.47;3503641;82;98973;-92
2022/11/08 06:12:04;;;;;;;18.97;9.37;;;;;;;7.39;100.00;100501.98;3511908;82;26491;-91
2022/11/08 06:17:05;;;;;;;19.40;8.33;;;;;;;7.42;100.00;100509.48;3509112;82;99230;-92
2022/11/08 06:22:08;;;;;;;20.97;9.43;;;;;;;7.42;100.00;100519.66;3515018;82;26260;-92
2022/11/08 06:27:09;;;;;;;22.10;10.85;;;;;;;7.44;100.00;100514.61;3517925;82;98860;-91
2022/11/08 06:32:10;;;;;;;21.10;11.07;;;;;;;7.45;100.00;100520.30;3525488;82;25918;-92
2022/11/08 06:37:12;;;;;;;20.00;10.40;;;;;;;7.48;100.00;100515.50;3488215;82;99105;-93
2022/11/08 06:42:13;;;;;;;20.60;9.80;;;;;;;7.49;100.00;100511.05;3521054;82;27494;-90
2022/11/08 06:47:15;;;;;;;17.23;9.90;;;;;;;7.51;100.00;100510.66;3515284;82;99041;-90
2022/11/08 06:52:16;;;;;;;20.57;10.00;;;;;;;7.54;100.00;100510.78;3502228;83;26333;-88
2022/11/08 06:57:17;;;;;;;17.63;10.60;;;;;;;7.56;100.00;100520.80;3496920;83;98943;-90
2022/11/08 07:02:18;;;;;;;23.30;11.10;;;;;;;7.60;100.00;100532.64;3501522;83;26290;-89
2022/11/08 07:07:18;;;;;;;31.03;12.03;;;;;;;7.62;100.00;100527.59;3492261;83;99104;-88
2022/11/08 07:12:19;;;;;;;21.70;10.90;;;;;;;7.69;100.00;100526.38;3502695;83;26206;-89
2022/11/08 07:17:20;;;;;;;18.80;10.10;;;;;;;7.79;100.00;100527.80;3495405;83;99268;-88
2022/11/08 07:22:21;;;;;;;17.90;9.45;;;;;;;7.84;100.00;100524.20;3501272;83;26611;-88
2022/11/08 07:27:22;;;;;;;22.93;10.83;;;;;;;8.01;100.00;100527.14;3479756;83;98990;-89
2022/11/08 07:32:23;;;;;;;24.00;10.93;;;;;;;8.16;100.00;100527.09;3510582;82;33232;-90
2022/11/08 07:37:23;;;;;;;20.23;10.20;;;;;;;8.35;100.00;100531.25;3505978;82;99196;-91
2022/11/08 07:42:24;;;;;;;21.53;10.13;;;;;;;8.51;100.00;100533.36;3509411;82;33197;-92
2022/11/08 07:47:25;;;;;;;18.40;9.93;;;;;;;8.68;100.00;100539.78;3512454;82;99058;-91
2022/11/08 07:52:26;;;;;;;19.12;10.03;;;;;;;8.86;100.00;100536.83;3481175;83;33243;-91
2022/11/08 07:57:27;;;;;;;21.12;10.30;;;;;;;9.02;100.00;100537.54;3507447;82;98996;-90
2022/11/08 08:02:28;;;;;;;22.33;10.50;;;;;;;9.20;100.00;100546.89;3519674;82;33230;-91
2022/11/08 08:07:29;;;;;;;17.70;9.50;;;;;;;9.40;100.00;100535.27;3507387;82;99228;-90
2022/11/08 08:12:30;;;;;;;19.00;10.13;;;;;;;9.58;100.00;100527.55;3510248;82;31657;-91
2022/11/08 08:17:31;;;;;;;21.67;10.20;;;;;;;9.79;100.00;100527.08;3505900;82;99282;-92
2022/11/08 08:22:32;;;;;;;18.60;9.13;;;;;;;10.05;100.00;100530.68;3513470;82;31697;-90
2022/11/08 08:27:33;;;;;;;19.97;9.70;;;;;;;10.31;100.00;100534.77;3500693;82;99385;-90
2022/11/08 08:32:33;;;;;;;16.10;9.30;;;;;;;10.59;100.00;100543.41;3501120;82;31644;-93
2022/11/08 08:37:34;;;;;;;17.47;9.40;;;;;;;10.91;100.00;100542.41;3500198;82;99303;-92
2022/11/08 08:42:35;;;;;;;18.33;9.13;;;;;;;11.31;100.00;100538.31;3502158;82;31572;-89
2022/11/08 08:47:36;;;;;;;16.60;8.67;;;;;;;11.68;100.00;100537.70;3505016;82;99410;-92
2022/11/08 08:52:37;;;;;;;15.00;8.48;;;;;;;12.08;100.00;100541.73;3516251;82;31700;-91
2022/11/08 08:57:37;;;;;;;18.67;8.63;;;;;;;12.50;100.00;100540.04;3507557;82;99263;-89
2022/11/08 09:02:38;;;;;;;15.70;8.20;;;;;;;12.88;100.00;100528.36;3507556;82;25996;-92
2022/11/08 09:07:40;;;;;;;17.50;8.30;;;;;;;13.23;100.00;100531.23;3511184;82;99416;-89
2022/11/08 09:12:41;;;;;;;18.43;8.17;;;;;;;13.46;100.00;100535.03;3514507;82;25905;-91
2022/11/08 09:17:42;;;;;;;16.93;7.50;;;;;;;13.73;100.00;100529.31;3505358;82;99243;-89
2022/11/08 09:22:43;;;;;;;13.77;6.33;;;;;;;14.08;99.43;100542.53;3512757;82;26625;-89
2022/11/08 09:27:44;;;;;;;19.70;8.67;;;;;;;14.19;96.96;100542.50;3505537;82;99116;-91
2022/11/08 09:32:44;;;;;;;16.90;7.50;;;;;;;14.22;97.27;100542.52;3516549;82;35513;-88
2022/11/08 09:37:45;;;;;;;16.43;8.17;;;;;;;14.33;95.08;100542.52;3475217;82;99080;-90
2022/11/08 09:43:07;;;;;;;14.63;7.78;;;;;;;14.36;94.07;100540.32;3513292;82;35610;-87
2022/11/08 09:48:16;;;;;;;17.30;8.38;;;;;;;14.36;93.78;100521.73;3502009;82;99071;-86
2022/11/08 09:53:41;;;;;;;17.37;7.85;;;;;;;14.61;94.29;100523.05;3515186;82;35658;-89
2022/11/08 09:59:07;;;;;;;17.77;7.87;;;;;;;14.69;92.43;100523.20;3414017;82;99122;-91
2022/11/08 10:04:18;;;;;;;21.10;8.18;;;;;;;14.69;92.90;100519.84;3473020;82;25982;-91
2022/11/08 10:09:45;;;;;;;17.15;8.05;;;;;;;14.70;91.49;100509.53;3476960;82;99241;-90
2022/11/08 10:15:19;;;;;;;16.60;7.97;;;;;;;14.53;90.75;100511.78;3504090;82;35434;-88
2022/11/08 10:20:59;;;;;;;14.40;6.65;;;;;;;14.51;91.58;100501.09;3504036;82;98893;-90
2022/11/08 10:26:08;;;;;;;13.88;6.53;;;;;;;14.51;90.24;100495.56;3504571;82;34906;-89
2022/11/08 10:31:12;;;;;;;12.53;6.22;;;;;;;14.45;90.69;100494.40;3500542;82;98861;-90
2022/11/08 10:36:26;;;;;;;13.15;5.87;;;;;;;14.48;90.58;100494.19;3506702;82;98942;-90
2022/11/08 10:41:57;;;;;;;12.10;6.03;;;;;;;14.45;90.85;100482.55;3511600;82;34827;-91
2022/11/08 10:47:05;;;;;;;16.57;6.37;;;;;;;14.55;91.20;100484.49;3507462;82;99156;-89
2022/11/08 10:52:23;;;;;;;13.43;5.85;;;;;;;14.56;90.26;100481.30;3515287;82;35386;-89
2022/11/08 10:57:32;;;;;;;11.70;5.03;;;;;;;14.53;90.20;100473.81;3475133;83;99009;-89
2022/11/08 11:02:34;;;;;;;14.55;5.47;;;;;;;14.56;89.91;100479.14;3516157;82;35461;-90
2022/11/08 11:07:36;;;;;;;19.90;5.60;;;;;;;14.56;89.79;100468.06;3509360;82;99178;-88
2022/11/08 11:12:36;;;;;;;14.98;5.80;;;;;;;14.57;89.97;100476.56;3509231;82;34288;-91
2022/11/08 11:17:38;;;;;;;13.03;5.40;;;;;;;14.63;90.04;100466.64;3509867;82;99101;-88
2022/11/08 11:22:42;;;;;;;12.37;5.50;;;;;;;14.65;90.00;100462.86;3511920;82;28408;-90
2022/11/08 11:27:54;;;;;;;13.00;5.08;;;;;;;14.68;90.18;100461.48;3492797;82;99147;-89
2022/11/08 11:33:03;;;;;;;13.20;5.00;;;;;;;14.74;89.88;100460.45;3492907;83;34853;-86
2022/11/08 11:38:09;;;;;;;13.85;6.15;;;;;;;14.71;88.98;100452.95;3493085;83;99019;-90
2022/11/08 11:43:36;;;;;;;18.52;5.62;;;;;;;14.74;89.19;100450.16;3491937;83;35412;-91
2022/11/08 11:48:48;;;;;;;15.78;5.72;;;;;;;14.78;88.94;100441.83;3492873;83;99108;-88
2022/11/08 11:53:49;;;;;;;13.03;5.35;;;;;;;14.78;88.86;100439.83;3499236;83;34847;-87
2022/11/08 11:59:41;;;;;;;14.40;4.60;;;;;;;14.80;88.95;100437.46;3488208;83;98874;-88
2022/11/08 12:05:22;;;;;;;15.50;4.72;;;;;;;14.84;88.47;100433.28;3497759;83;34828;-90
2022/11/08 12:10:41;;;;;;;10.88;4.80;;;;;;;14.86;88.06;100430.88;3492299;83;98891;-90
2022/11/08 12:16:08;;;;;;;15.45;4.70;;;;;;;14.86;87.91;100434.45;3502620;83;35454;-86
2022/11/08 12:21:35;;;;;;;14.03;5.25;;;;;;;14.87;86.98;100433.25;3493576;83;98888;-91
2022/11/08 12:27:11;;;;;;;14.83;6.37;;;;;;;14.88;87.46;100427.13;3489162;83;99018;-90
2022/11/08 12:32:25;;;;;;;14.63;6.35;;;;;;;14.86;86.75;100416.44;3461868;83;34847;-89
2022/11/08 12:38:24;;;;;;;12.03;4.40;;;;;;;14.89;86.89;100419.77;3490274;83;99360;-91
2022/11/08 12:43:52;;;;;;;14.63;5.90;;;;;;;14.75;86.48;100394.94;3502393;83;34816;-89
2022/11/08 12:49:17;;;;;;;12.73;4.30;;;;;;;14.90;86.61;100412.26;3481870;83;99113;-89
2022/11/08 12:54:40;;;;;;;15.60;5.50;;;;;;;14.88;86.57;100406.34;3497210;83;35495;-89
2022/11/08 12:59:51;;;;;;;11.50;4.72;;;;;;;14.85;86.41;100403.78;3490912;83;98993;-88
2022/11/08 13:05:00;;;;;;;11.28;4.40;;;;;;;14.84;86.36;100398.64;3496780;83;35590;-88
2022/11/08 13:10:29;;;;;;;12.98;5.03;;;;;;;14.84;86.80;100397.27;3498307;83;98932;-90
2022/11/08 13:15:30;;;;;;;10.30;4.83;;;;;;;14.71;86.33;100374.78;3505689;83;34930;-90
2022/11/08 13:20:41;;;;;;;14.87;5.10;;;;;;;14.80;86.78;100395.91;3495207;83;98912;-88
2022/11/08 13:25:43;;;;;;;13.88;4.62;;;;;;;14.79;86.76;100393.53;3502694;83;34867;-89
2022/11/08 13:30:50;;;;;;;12.30;4.83;;;;;;;14.74;86.93;100393.37;3493715;83;98929;-91
2022/11/08 13:36:24;;;;;;;10.93;4.33;;;;;;;14.69;87.05;100389.64;3498320;83;35394;-92
2022/11/08 13:41:25;;;;;;;12.90;4.90;;;;;;;14.67;86.79;100398.94;3501042;83;34903;-89
2022/11/08 13:46:35;;;;;;;9.73;4.87;;;;;;;14.63;86.91;100383.53;3497313;83;99133;-92
2022/11/08 13:51:39;;;;;;;10.82;4.45;;;;;;;14.63;86.93;100396.80;3499604;83;35143;-87
2022/11/08 13:56:53;;;;;;;12.75;4.47;;;;;;;14.52;86.57;100389.73;3497777;83;99073;-90
2022/11/08 14:02:25;;;;;;;9.05;3.90;;;;;;;14.57;86.80;100393.47;3498773;83;35465;-90
2022/11/08 14:07:47;;;;;;;17.77;4.70;;;;;;;14.57;87.06;100400.39;3493842;83;99002;-91
2022/11/08 14:13:23;;;;;;;12.25;5.12;;;;;;;14.51;86.89;100394.47;3495585;83;34860;-91
2022/11/08 14:18:32;;;;;;;12.47;4.37;;;;;;;14.46;87.05;100388.59;3500033;83;98896;-93
2022/11/08 14:23:41;;;;;;;19.87;5.00;;;;;;;14.40;87.24;100386.82;3496467;83;34893;-90
2022/11/08 14:28:45;;;;;;;15.03;5.85;;;;;;;14.36;87.40;100383.88;3494188;83;99131;-90
2022/11/08 14:33:46;;;;;;;11.03;5.10;;;;;;;14.31;87.61;100382.92;3500070;83;34830;-92
2022/11/08 14:39:13;;;;;;;10.77;5.53;;;;;;;14.23;87.81;100380.00;3494862;83;99131;-90
2022/11/08 14:44:17;;;;;;;13.95;4.97;;;;;;;14.16;88.00;100377.21;3499067;83;35439;-89
2022/11/08 14:49:34;;;;;;;11.97;4.62;;;;;;;13.97;88.07;100363.86;3490424;83;99160;-90
2022/11/08 14:54:41;;;;;;;13.83;4.37;;;;;;;14.02;88.28;100374.52;3472443;83;26083;-91
2022/11/08 14:59:42;;;;;;;13.15;4.83;;;;;;;13.93;88.42;100378.30;3496387;83;98862;-91
2022/11/08 15:04:43;;;;;;;17.73;5.40;;;;;;;13.84;88.66;100377.95;3495559;83;30126;-90
2022/11/08 15:09:45;;;;;;;19.32;9.05;;;;;;;13.76;88.89;100372.23;3491288;83;99040;-90
2022/11/08 15:14:54;;;;;;;21.37;10.50;;;;;;;13.68;89.14;100374.83;3499524;83;31066;-90
2022/11/08 15:20:18;;;;;;;19.85;10.60;;;;;;;13.57;89.32;100367.92;3492875;83;99041;-90
2022/11/08 15:25:37;;;;;;;16.65;7.05;;;;;;;13.44;89.58;100367.35;3498411;83;34796;-89
2022/11/08 15:30:41;;;;;;;17.80;7.90;;;;;;;13.32;89.95;100359.48;3501605;82;99014;-89
2022/11/08 15:35:45;;;;;;;15.10;8.33;;;;;;;13.18;90.37;100359.48;3510519;82;34941;-90
2022/11/08 15:40:52;;;;;;;15.88;8.38;;;;;;;13.05;90.87;100354.97;3505522;82;98915;-89
2022/11/08 15:45:53;;;;;;;18.45;8.53;;;;;;;12.95;91.21;100359.06;3508723;82;35174;-90
2022/11/08 15:50:58;;;;;;;17.47;9.00;;;;;;;12.84;91.53;100352.16;3502421;82;98966;-91
2022/11/08 15:56:04;;;;;;;19.35;10.48;;;;;;;12.72;91.95;100351.75;3479621;82;35877;-91
2022/11/08 16:01:06;;;;;;;28.52;13.10;;;;;;;12.62;92.34;100349.77;3501310;82;98868;-92
2022/11/08 16:06:10;;;;;;;23.50;13.43;;;;;;;12.52;92.66;100351.91;3507528;82;30182;-92
2022/11/08 16:11:21;;;;;;;23.30;15.43;;;;;;;12.43;92.95;100355.66;3510551;82;36062;-91
2022/11/08 16:16:22;;;;;;;20.12;12.68;;;;;;;12.33;93.44;100346.14;3502553;82;99256;-87
2022/11/08 16:21:23;;;;;;;18.07;9.77;;;;;;;12.22;93.73;100337.05;3508383;83;30270;-89
2022/11/08 16:26:24;;;;;;;20.90;13.07;;;;;;;12.13;93.99;100331.13;3501392;82;99283;-89
2022/11/08 16:31:24;;;;;;;20.40;10.80;;;;;;;12.05;94.30;100339.16;3509378;82;25904;-90
2022/11/08 16:36:26;;;;;;;21.70;11.20;;;;;;;11.77;95.00;100315.61;3511542;82;98990;-90
2022/11/08 16:41:27;;;;;;;20.80;11.37;;;;;;;11.77;95.00;100315.61;3512873;82;33689;-90
2022/11/08 16:46:28;;;;;;;18.53;9.07;;;;;;;11.83;95.11;100338.10;3509399;82;99282;-90
2022/11/08 16:51:29;;;;;;;20.73;11.13;;;;;;;11.73;95.36;100331.34;3512904;82;33010;-89
2022/11/08 16:56:30;;;;;;;18.80;10.37;;;;;;;11.65;95.68;100338.02;3494401;82;99291;-90
2022/11/08 17:01:33;;;;;;;23.87;11.30;;;;;;;11.59;96.23;100331.86;3499794;82;32973;-90
2022/11/08 17:06:34;;;;;;;24.35;11.70;;;;;;;11.54;96.55;100341.27;3499130;82;99220;-89
2022/11/08 17:11:37;;;;;;;21.00;11.37;;;;;;;11.50;96.69;100338.30;3504899;82;33304;-90
2022/11/08 17:16:37;;;;;;;24.43;13.90;;;;;;;11.44;97.23;100339.84;3502248;82;99288;-90
2022/11/08 17:21:38;;;;;;;22.50;13.33;;;;;;;11.40;97.58;100340.39;3504159;82;26632;-90
2022/11/08 17:26:52;;;;;;;24.17;13.30;;;;;;;11.37;97.84;100344.71;3499754;83;99839;-88
2022/11/08 17:31:53;;;;;;;23.75;14.13;;;;;;;11.33;98.18;100337.60;3512253;83;34857;-89
2022/11/08 17:36:54;;;;;;;21.52;13.90;;;;;;;11.27;98.49;100327.52;3520188;83;99289;-88
2022/11/08 17:41:55;;;;;;;24.97;14.50;;;;;;;11.25;98.99;100322.19;3520889;83;26384;-90
2022/11/08 17:46:56;;;;;;;26.60;15.27;;;;;;;11.21;99.18;100318.03;3518941;83;99236;-89
2022/11/08 17:51:56;;;;;;;28.87;15.63;;;;;;;11.17;99.29;100317.81;3511994;83;26402;-89
2022/11/08 17:56:57;;;;;;;25.68;15.35;;;;;;;11.03;99.43;100299.23;3503659;84;99160;-88
2022/11/08 18:01:58;;;;;;;28.13;17.40;;;;;;;11.11;99.67;100320.12;3509834;83;33473;-88
2022/11/08 18:06:59;;;;;;;93.63;60.90;;;;;;;11.09;100.00;100317.55;3502207;82;99148;-91
2022/11/08 18:12:00;;;;;;;31.02;21.33;;;;;;;11.09;100.00;100316.17;3510544;83;33018;-90
2022/11/08 18:17:01;;;;;;;26.03;17.83;;;;;;;11.06;100.00;100322.46;3472670;83;99481;-89
2022/11/08 18:22:03;;;;;;;30.90;20.70;;;;;;;11.05;100.00;100322.23;3509048;83;26366;-89
2022/11/08 18:27:04;;;;;;;32.60;19.02;;;;;;;11.02;100.00;100322.41;3501581;83;99547;-89
2022/11/08 18:32:05;;;;;;;32.47;19.50;;;;;;;11.02;100.00;100327.14;3496150;83;26788;-89
2022/11/08 18:37:05;;;;;;;38.70;19.93;;;;;;;11.00;100.00;100319.83;3487649;84;99835;-89
2022/11/08 18:42:06;;;;;;;40.97;21.43;;;;;;;10.97;100.00;100317.86;3493880;83;25762;-88
2022/11/08 18:47:07;;;;;;;30.70;20.27;;;;;;;10.92;100.00;100301.11;3487030;83;99422;-89
2022/11/08 18:52:08;;;;;;;34.43;21.83;;;;;;;10.90;100.00;100310.33;3490606;83;26087;-89
2022/11/08 18:57:08;;;;;;;33.43;20.50;;;;;;;10.88;100.00;100309.92;3485742;83;99182;-89
2022/11/08 19:02:12;;;;;;;41.77;24.77;;;;;;;10.86;100.00;100301.23;3493795;83;25925;-90
2022/11/08 19:07:13;;;;;;;40.70;23.80;;;;;;;10.84;100.00;100305.58;3485083;84;99529;-89
2022/11/08 19:12:13;;;;;;;35.33;20.77;;;;;;;10.82;100.00;100303.77;3494741;83;33669;-90
2022/11/08 19:17:15;;;;;;;41.00;23.33;;;;;;;10.79;100.00;100299.05;3486501;83;99402;-89
2022/11/08 19:22:16;;;;;;;36.77;19.73;;;;;;;10.75;100.00;100305.87;3491283;84;34017;-89
2022/11/08 19:27:16;;;;;;;32.63;21.20;;;;;;;10.72;100.00;100309.97;3487768;83;99391;-90
2022/11/08 19:32:18;;;;;;;37.20;21.37;;;;;;;10.68;100.00;100319.58;3511992;83;33347;-90
2022/11/08 19:37:19;;;;;;;32.57;19.80;;;;;;;10.64;100.00;100319.35;3486542;82;99430;-91
2022/11/08 19:42:20;;;;;;;37.30;22.43;;;;;;;10.60;100.00;100328.16;3527159;82;33253;-91
2022/11/08 19:47:21;;;;;;;36.37;21.60;;;;;;;10.55;100.00;100321.62;3518335;82;99384;-91
2022/11/08 19:52:22;;;;;;;39.93;22.87;;;;;;;10.51;100.00;100323.53;3519889;82;33232;-89
2022/11/08 19:57:26;;;;;;;38.43;22.67;;;;;;;10.48;100.00;100319.58;3524267;82;99427;-91
2022/11/08 20:02:27;;;;;;;36.00;22.43;;;;;;;10.44;100.00;100320.73;3528100;82;33282;-90
2022/11/08 20:07:28;;;;;;;41.30;24.60;;;;;;;10.40;100.00;100315.19;3492583;83;99444;-90
2022/11/08 20:12:31;;;;;;;36.47;21.13;;;;;;;10.38;100.00;100323.62;3497184;83;33226;-91
2022/11/08 20:17:34;;;;;;;41.27;25.40;;;;;;;10.32;100.00;100321.81;3492707;83;99404;-90
2022/11/08 20:22:35;;;;;;;39.50;21.93;;;;;;;10.29;100.00;100310.17;3475475;84;26251;-90
2022/11/08 20:27:36;;;;;;;35.43;20.80;;;;;;;10.25;100.00;100307.96;3492814;83;99320;-90
2022/11/08 20:32:37;;;;;;;40.03;22.80;;;;;;;10.23;100.00;100302.63;3497072;84;33231;-90
2022/11/08 20:37:38;;;;;;;38.03;23.50;;;;;;;10.19;100.00;100306.72;3487682;83;99054;-90
2022/11/08 20:42:39;;;;;;;33.73;19.97;;;;;;;10.15;100.00;100307.86;3499267;83;33205;-90
2022/11/08 20:47:40;;;;;;;36.03;21.23;;;;;;;10.11;100.00;100306.45;3492287;83;99431;-89
2022/11/08 20:52:41;;;;;;;35.77;19.40;;;;;;;10.07;100.00;100306.98;3499616;83;33769;-91
2022/11/08 20:57:42;;;;;;;35.80;21.63;;;;;;;10.06;100.00;100303.23;3494112;83;99199;-89
2022/11/08 21:02:43;;;;;;;34.43;22.40;;;;;;;10.03;100.00;100309.47;3492276;83;33808;-87
2022/11/08 21:07:44;;;;;;;30.57;19.70;;;;;;;9.98;100.00;100307.05;3493379;83;99233;-89
2022/11/08 21:12:45;;;;;;;35.78;20.55;;;;;;;9.94;100.00;100302.89;3502917;83;33762;-91
2022/11/08 21:17:46;;;;;;;35.67;21.83;;;;;;;9.92;100.00;100304.44;3493689;83;99024;-90
2022/11/08 21:22:46;;;;;;;36.67;21.13;;;;;;;9.77;100.00;100287.56;3503286;83;31677;-89
2022/11/08 21:27:47;;;;;;;37.37;21.30;;;;;;;9.77;100.00;100287.56;3493184;83;98749;-89
2022/11/08 21:32:48;;;;;;;37.47;21.83;;;;;;;9.86;100.00;100298.47;3484281;83;31659;-89
2022/11/08 21:37:49;;;;;;;33.73;20.17;;;;;;;9.83;100.00;100297.86;3513149;82;99220;-89
2022/11/08 21:42:50;;;;;;;37.13;21.90;;;;;;;9.80;100.00;100297.22;3492972;82;31590;-90
2022/11/08 21:47:52;;;;;;;34.20;19.77;;;;;;;9.78;100.00;100288.56;3506717;82;99119;-91
2022/11/08 21:52:53;;;;;;;37.67;21.43;;;;;;;9.76;100.00;100288.73;3501486;82;31621;-89
2022/11/08 21:57:54;;;;;;;33.42;18.52;;;;;;;9.71;100.00;100281.59;3504872;82;99191;-89
2022/11/08 22:02:55;;;;;;;33.93;20.50;;;;;;;9.67;100.00;100284.90;3513007;82;31678;-89
2022/11/08 22:07:56;;;;;;;34.47;20.13;;;;;;;9.64;100.00;100286.20;3499609;83;99182;-90
2022/11/08 22:12:57;;;;;;;37.65;20.92;;;;;;;9.60;100.00;100288.91;3507868;82;31690;-89
2022/11/08 22:17:57;;;;;;;33.37;19.40;;;;;;;9.58;100.00;100284.38;3493545;82;99037;-89
2022/11/08 22:22:58;;;;;;;38.33;21.20;;;;;;;9.55;100.00;100277.48;3513067;82;25870;-88
2022/11/08 22:27:59;;;;;;;36.13;19.93;;;;;;;9.52;100.00;100277.64;3503373;82;98880;-89
2022/11/08 22:33:00;;;;;;;38.63;19.67;;;;;;;9.50;100.00;100270.94;3504946;82;35656;-90
2022/11/08 22:38:01;;;;;;;38.77;21.57;;;;;;;9.48;100.00;100273.27;3502074;83;98911;-90
2022/11/08 22:43:01;;;;;;;33.40;18.60;;;;;;;9.46;100.00;100275.02;3516587;82;35489;-90
2022/11/08 22:48:02;;;;;;;36.63;20.20;;;;;;;9.44;100.00;100268.31;3499214;83;99188;-90
2022/11/08 22:53:04;;;;;;;35.55;19.37;;;;;;;9.41;100.00;100277.28;3501404;83;34907;-90
2022/11/08 22:58:04;;;;;;;33.40;19.80;;;;;;;9.36;100.00;100274.29;3494216;83;99059;-88
2022/11/08 23:03:05;;;;;;;32.53;19.47;;;;;;;9.32;100.00;100273.44;3506995;82;26648;-89
2022/11/08 23:08:06;;;;;;;33.53;19.63;;;;;;;9.10;100.00;100237.25;3487884;83;99282;-88
2022/11/08 23:18:27;;;;;;;35.48;19.70;;;;;;;9.21;100.00;100267.02;3496020;83;99080;-89
2022/11/08 23:34:03;;;;;;;33.67;17.95;;;;;;;9.08;100.00;100258.00;3487875;84;35142;-89
2022/11/08 23:39:04;;;;;;;30.57;17.60;;;;;;;9.03;100.00;100256.38;3476855;84;99132;-88
2022/11/08 23:44:25;;;;;;;32.23;17.97;;;;;;;8.99;100.00;100261.61;3486421;84;26125;-89